Главная страница
METAR-TAF:

METAR-TAF

Аэропорты :

Hazleton, Пенсильвания, США

широта: 40-59-12N, долгота: 075-59-42W, высота над уровнем моря: 489 м

Текущие метеонаблюдения

Эта сводка был подготовлена 6 минут назад, в 19:59 UTC
Ветер 8 Узел от западный с порывами до 16 Узел
Температура 9°C
Влажность 66%
Давление 1000 hPa
Видимость: 16.1 км
Сплошная облачность на высоте 2600 фута

METAR: KHZL 171959Z AUTO 27008G16KT 10SM OVC026 09/03 A2953 RMK AO2

Время: 16:05 (20:05 UTC)


TAF: отсутствует

Метеонаблюдения и прогнозы для более 4000 аэропортов (сводки METAR и TAF).

Имеющиеся станции представлены на карте желтыми и красными точками.

Чтобы увидеть название станции, наведите на нее мышь.

Затем щелкните, чтобы увидеть метеонаблюдения и метеопрогнозы.

Управление картой: чтобы увеличить масштаб, щелкните зеленые кнопки с черным крестиком; чтобы уменьшить масштаб, щелкните зеленую кнопку с тире; для просмотра соседних карт щелкайте зеленые стрелки.


METAR-TAF: